createdAt,value
2018-12-17T00:00:35.558Z,33.50
2018-12-17T00:03:05.931Z,31.00
2018-12-17T00:05:34.528Z,35.80
2018-12-17T00:08:04.697Z,34.63
2018-12-17T00:10:35.759Z,32.93
2018-12-17T00:13:05.101Z,41.13
2018-12-17T00:15:34.806Z,40.27
2018-12-17T00:18:03.612Z,32.70
2018-12-17T00:20:32.212Z,35.60
2018-12-17T00:23:01.118Z,35.57
2018-12-17T00:25:30.838Z,29.77
2018-12-17T00:27:59.658Z,29.90
2018-12-17T00:30:28.641Z,33.67
2018-12-17T00:32:58.234Z,36.10
2018-12-17T00:35:26.956Z,33.80
2018-12-17T00:37:56.434Z,34.77
2018-12-17T00:45:16.333Z,32.93
2018-12-17T00:47:45.205Z,31.43
2018-12-17T00:50:15.451Z,30.97
2018-12-17T00:52:45.488Z,32.20
2018-12-17T00:55:16.598Z,40.87
2018-12-17T00:57:46.110Z,30.47
2018-12-17T01:00:17.470Z,32.67
2018-12-17T01:02:48.694Z,29.20
2018-12-17T01:05:19.637Z,31.67
2018-12-17T01:07:49.815Z,33.60
2018-12-17T01:10:18.652Z,29.23
2018-12-17T01:12:49.443Z,32.77
2018-12-17T01:15:19.599Z,31.53
2018-12-17T01:17:49.346Z,40.23
2018-12-17T01:20:19.726Z,30.40
2018-12-17T01:22:49.166Z,29.60
2018-12-17T01:25:19.076Z,30.90
2018-12-17T01:27:48.022Z,32.20
2018-12-17T01:30:18.692Z,30.13
2018-12-17T01:32:49.891Z,30.73
2018-12-17T01:35:20.644Z,32.40
2018-12-17T01:37:51.722Z,33.40
2018-12-17T01:40:24.030Z,28.27
2018-12-17T01:42:54.333Z,29.60
2018-12-17T01:45:25.554Z,35.57
2018-12-17T01:47:56.171Z,26.93
2018-12-17T01:50:25.694Z,26.50
2018-12-17T01:52:56.608Z,25.77
2018-12-17T01:55:27.107Z,28.60
2018-12-17T01:57:57.630Z,29.13
2018-12-17T02:00:27.846Z,32.77
2018-12-17T02:02:59.458Z,26.53
2018-12-17T02:05:29.429Z,27.83
2018-12-17T02:07:58.232Z,29.17
2018-12-17T02:10:27.991Z,32.00
2018-12-17T02:12:56.438Z,33.80
2018-12-17T02:15:25.138Z,34.27
2018-12-17T02:18:00.579Z,33.07
2018-12-17T02:20:32.341Z,26.73
2018-12-17T02:23:02.678Z,28.17
2018-12-17T02:25:32.638Z,24.60
2018-12-17T02:28:01.521Z,27.10
2018-12-17T02:30:31.148Z,27.33
2018-12-17T02:33:00.891Z,31.23
2018-12-17T02:35:30.217Z,29.03
2018-12-17T02:37:59.521Z,25.40
2018-12-17T02:40:32.073Z,26.23
2018-12-17T02:43:00.982Z,24.77
2018-12-17T02:45:30.476Z,29.17
2018-12-17T02:47:59.959Z,28.17
2018-12-17T02:50:29.255Z,28.70
2018-12-17T02:52:59.153Z,38.37
2018-12-17T02:55:27.949Z,26.67
2018-12-17T02:58:08.326Z,29.20
2018-12-17T03:00:55.374Z,29.73
2018-12-17T03:03:29.423Z,27.77
2018-12-17T03:05:59.028Z,31.53
2018-12-17T03:08:34.688Z,29.20
2018-12-17T03:11:07.206Z,33.97
2018-12-17T03:13:45.663Z,28.03
2018-12-17T03:16:21.889Z,32.37
2018-12-17T03:18:59.195Z,26.10
2018-12-17T03:21:33.601Z,32.33
2018-12-17T03:24:03.694Z,26.73
2018-12-17T03:26:37.623Z,26.80
2018-12-17T03:29:06.449Z,28.07
2018-12-17T03:31:34.958Z,29.93
2018-12-17T03:34:03.889Z,27.13
2018-12-17T03:36:46.366Z,25.93
2018-12-17T03:39:18.072Z,24.67
2018-12-17T03:41:46.855Z,26.17
2018-12-17T03:44:15.869Z,27.60
2018-12-17T03:46:46.552Z,24.97
2018-12-17T03:49:17.527Z,31.40
2018-12-17T03:51:51.982Z,26.03
2018-12-17T03:54:23.861Z,28.70
2018-12-17T03:56:54.225Z,29.07
2018-12-17T03:59:25.181Z,33.60
2018-12-17T04:01:55.697Z,31.57
2018-12-17T04:04:25.735Z,25.33
2018-12-17T04:06:57.395Z,26.30
2018-12-17T04:09:28.689Z,28.40
2018-12-17T04:11:59.298Z,29.03
2018-12-17T04:14:29.367Z,26.87
2018-12-17T04:16:59.221Z,31.87
2018-12-17T04:19:28.778Z,32.97
2018-12-17T04:21:57.266Z,29.17
2018-12-17T04:24:27.468Z,32.23
2018-12-17T04:26:59.043Z,29.53
2018-12-17T04:29:27.490Z,27.07
2018-12-17T04:31:57.486Z,32.43
2018-12-17T04:34:28.817Z,30.27
2018-12-17T04:36:58.666Z,31.77
2018-12-17T04:39:29.803Z,29.37
2018-12-17T04:41:58.642Z,33.90
2018-12-17T04:44:27.094Z,37.67
2018-12-17T04:46:55.562Z,29.20
2018-12-17T04:49:25.874Z,32.17
2018-12-17T04:51:56.549Z,40.93
2018-12-17T04:54:26.220Z,38.73
2018-12-17T04:56:55.538Z,27.37
2018-12-17T04:59:25.517Z,31.17
2018-12-17T05:01:57.475Z,33.03
2018-12-17T05:04:29.189Z,32.53
2018-12-17T05:06:59.112Z,32.40
2018-12-17T05:09:28.136Z,29.80
2018-12-17T05:11:59.094Z,42.10
2018-12-17T05:14:29.570Z,25.83
2018-12-17T05:17:00.332Z,29.37
2018-12-17T05:19:30.801Z,30.03
2018-12-17T05:22:01.439Z,36.27
2018-12-17T05:24:32.238Z,44.90
2018-12-17T05:27:01.895Z,33.00
2018-12-17T05:29:32.800Z,29.80
2018-12-17T05:32:01.931Z,35.70
2018-12-17T05:34:31.414Z,33.13
2018-12-17T05:37:01.178Z,25.83
2018-12-17T05:39:33.174Z,30.03
2018-12-17T05:42:03.598Z,36.90
2018-12-17T05:44:33.583Z,32.63
2018-12-17T05:47:04.725Z,27.07
2018-12-17T05:49:35.657Z,34.13
2018-12-17T05:52:07.083Z,27.87
2018-12-17T05:54:37.457Z,30.17
2018-12-17T05:57:06.303Z,29.90
2018-12-17T05:59:37.243Z,31.33
2018-12-17T06:02:07.286Z,36.90
2018-12-17T06:04:37.625Z,32.97
2018-12-17T06:07:09.755Z,31.83
2018-12-17T06:09:40.043Z,35.23
2018-12-17T06:12:10.245Z,36.93
2018-12-17T06:14:40.749Z,36.87
2018-12-17T06:17:11.022Z,37.93
2018-12-17T06:19:41.974Z,38.20
2018-12-17T06:22:11.346Z,29.53
2018-12-17T06:24:43.909Z,29.97
2018-12-17T06:27:15.207Z,33.20
2018-12-17T06:29:44.510Z,40.97
2018-12-17T06:32:16.005Z,37.60
2018-12-17T06:34:48.315Z,33.43
2018-12-17T06:37:19.522Z,35.00
2018-12-17T06:39:49.075Z,36.60
2018-12-17T06:42:18.774Z,43.97
2018-12-17T06:44:50.179Z,37.57
2018-12-17T06:47:21.412Z,43.77
2018-12-17T06:49:51.884Z,35.57
2018-12-17T06:52:24.425Z,37.73
2018-12-17T06:54:55.313Z,39.63
2018-12-17T06:57:25.272Z,44.57
2018-12-17T06:59:57.607Z,38.23
2018-12-17T07:02:29.775Z,39.57
2018-12-17T07:04:59.735Z,41.70
2018-12-17T07:07:30.487Z,48.33
2018-12-17T07:10:02.802Z,47.13
2018-12-17T07:12:34.744Z,39.23
2018-12-17T07:15:05.638Z,41.63
2018-12-17T07:17:41.905Z,41.57
2018-12-17T07:20:22.460Z,40.60
2018-12-17T07:22:57.310Z,45.73
2018-12-17T07:25:33.246Z,38.27
2018-12-17T07:28:07.485Z,37.63
2018-12-17T07:30:43.310Z,46.50
2018-12-17T07:33:17.883Z,39.47
2018-12-17T07:35:55.282Z,42.93
2018-12-17T07:38:34.884Z,46.00
2018-12-17T07:41:05.194Z,40.73
2018-12-17T07:43:38.176Z,38.17
2018-12-17T07:46:10.270Z,37.10
2018-12-17T07:48:54.601Z,40.20
2018-12-17T07:51:24.697Z,38.23
2018-12-17T07:53:59.595Z,35.57
2018-12-17T07:56:29.738Z,39.37
2018-12-17T07:59:02.227Z,45.33
2018-12-17T08:01:31.934Z,34.67
2018-12-17T08:04:06.482Z,37.27
2018-12-17T08:06:36.001Z,37.13
2018-12-17T08:09:14.082Z,37.20
2018-12-17T08:11:43.292Z,37.67
2018-12-17T08:14:12.445Z,40.70
2018-12-17T08:16:41.555Z,34.27
2018-12-17T08:19:10.170Z,38.37
2018-12-17T08:21:39.360Z,37.00
2018-12-17T08:24:10.391Z,32.67
2018-12-17T08:26:44.530Z,33.60
2018-12-17T08:29:15.941Z,33.27
2018-12-17T08:31:48.270Z,30.30
2018-12-17T08:34:22.065Z,33.60
2018-12-17T08:36:55.012Z,34.20
2018-12-17T08:39:24.271Z,32.67
2018-12-17T08:44:34.915Z,34.43
2018-12-17T08:47:10.885Z,34.87
2018-12-17T08:49:49.051Z,42.17
2018-12-17T08:52:25.490Z,41.90
2018-12-17T08:55:05.670Z,37.60
2018-12-17T08:57:42.531Z,44.23
2018-12-17T09:00:23.085Z,41.90
2018-12-17T09:03:04.181Z,39.57
2018-12-17T09:05:41.011Z,38.50
2018-12-17T09:08:22.901Z,42.30
2018-12-17T09:11:02.947Z,34.33
2018-12-17T09:13:36.918Z,36.43
2018-12-17T09:16:17.998Z,35.53
2018-12-17T09:18:58.085Z,37.37
2018-12-17T09:21:36.515Z,30.37
2018-12-17T09:24:15.979Z,36.33
2018-12-17T09:26:53.620Z,31.77
2018-12-17T09:29:32.361Z,32.80
2018-12-17T09:32:12.876Z,30.70
2018-12-17T09:34:53.505Z,29.73
2018-12-17T09:37:33.906Z,31.23
2018-12-17T09:40:18.704Z,27.40
2018-12-17T09:42:59.646Z,24.17
2018-12-17T09:45:36.662Z,22.77
2018-12-17T09:48:06.510Z,21.67
2018-12-17T09:50:48.076Z,21.47
2018-12-17T09:53:24.007Z,20.43
2018-12-17T09:55:53.789Z,21.90
2018-12-17T09:58:33.159Z,21.10
2018-12-17T10:01:13.511Z,22.83
2018-12-17T10:03:50.916Z,24.40
2018-12-17T10:06:27.436Z,20.47
2018-12-17T10:09:08.318Z,21.93
2018-12-17T10:11:44.015Z,21.33
2018-12-17T10:14:20.569Z,20.97
2018-12-17T10:16:59.519Z,20.10
2018-12-17T10:19:40.221Z,18.87
2018-12-17T10:22:18.861Z,23.77
2018-12-17T10:24:57.025Z,20.37
2018-12-17T10:27:35.127Z,19.40
2018-12-17T10:30:14.652Z,19.83
2018-12-17T10:32:52.135Z,21.57
2018-12-17T10:35:21.882Z,21.27
2018-12-17T10:38:01.239Z,18.33
2018-12-17T10:40:39.411Z,22.03
2018-12-17T10:43:08.583Z,20.33
2018-12-17T10:45:50.491Z,21.57
2018-12-17T10:48:19.227Z,20.60
2018-12-17T10:50:55.740Z,21.27
2018-12-17T10:53:34.584Z,20.80
2018-12-17T10:56:09.964Z,20.17
2018-12-17T10:58:41.263Z,19.67
2018-12-17T11:01:22.831Z,19.37
2018-12-17T11:04:07.610Z,18.40
2018-12-17T11:06:48.321Z,20.60
2018-12-17T11:09:25.796Z,19.73
2018-12-17T11:12:04.430Z,19.63
2018-12-17T11:14:44.183Z,18.97
2018-12-17T11:17:19.906Z,19.23
2018-12-17T11:19:56.171Z,19.77
2018-12-17T11:22:34.273Z,19.63
2018-12-17T11:25:09.780Z,19.67
2018-12-17T11:27:47.963Z,20.17
2018-12-17T11:30:26.881Z,19.77
2018-12-17T11:33:04.811Z,20.63
2018-12-17T11:35:43.592Z,21.83
2018-12-17T11:38:22.178Z,18.63
2018-12-17T11:41:01.339Z,19.17
2018-12-17T11:43:43.627Z,21.03
2018-12-17T11:46:11.302Z,19.23
2018-12-17T11:48:49.978Z,22.37
2018-12-17T11:51:19.034Z,21.23
2018-12-17T11:53:56.977Z,19.00
2018-12-17T11:56:49.658Z,21.27
2018-12-17T11:59:28.366Z,19.67
2018-12-17T12:02:09.404Z,20.60
2018-12-17T12:04:45.667Z,19.77
2018-12-17T12:07:23.998Z,20.83
2018-12-17T12:09:52.472Z,21.53
2018-12-17T12:12:30.583Z,24.60
2018-12-17T12:15:11.090Z,21.60
2018-12-17T12:17:51.388Z,21.53
2018-12-17T12:20:33.583Z,22.17
2018-12-17T12:23:11.539Z,20.27
2018-12-17T12:25:49.825Z,20.23
2018-12-17T12:28:30.510Z,21.17
2018-12-17T12:31:09.272Z,20.53
2018-12-17T12:33:46.433Z,20.13
2018-12-17T12:36:20.234Z,19.77
2018-12-17T12:38:55.902Z,18.87
2018-12-17T12:41:34.822Z,19.47
2018-12-17T12:44:11.523Z,19.50
2018-12-17T12:46:50.777Z,19.00
2018-12-17T12:49:32.085Z,19.40
2018-12-17T12:52:09.265Z,19.17
2018-12-17T12:54:48.254Z,19.30
2018-12-17T12:57:27.049Z,18.67
2018-12-17T13:00:07.850Z,18.63
2018-12-17T13:02:45.287Z,18.30
2018-12-17T13:05:20.612Z,17.80
2018-12-17T13:07:58.294Z,18.23
2018-12-17T13:10:34.982Z,17.70
2018-12-17T13:13:13.074Z,17.17
2018-12-17T13:15:51.270Z,17.47
2018-12-17T13:18:25.844Z,18.20
2018-12-17T13:21:03.795Z,18.80
2018-12-17T13:23:39.999Z,17.37
2018-12-17T13:26:14.094Z,17.10
2018-12-17T13:28:54.510Z,17.47
2018-12-17T13:31:31.100Z,16.10
2018-12-17T13:34:11.874Z,17.43
2018-12-17T13:36:49.276Z,16.50
2018-12-17T13:39:28.483Z,18.13
2018-12-17T13:42:04.881Z,17.30
2018-12-17T13:44:46.550Z,16.90
2018-12-17T13:47:25.977Z,17.10
2018-12-17T13:50:10.385Z,17.00
2018-12-17T13:52:48.322Z,16.83
2018-12-17T13:55:24.458Z,17.30
2018-12-17T13:58:03.866Z,16.17
2018-12-17T14:00:42.016Z,17.13
2018-12-17T14:03:22.383Z,17.23
2018-12-17T14:06:00.205Z,17.90
2018-12-17T14:08:34.321Z,16.60
2018-12-17T14:11:03.722Z,16.90
2018-12-17T14:13:40.479Z,17.00
2018-12-17T14:16:16.829Z,17.00
2018-12-17T14:18:59.933Z,16.53
2018-12-17T14:21:39.214Z,16.70
2018-12-17T14:24:13.038Z,17.73
2018-12-17T14:26:47.232Z,18.20
2018-12-17T14:29:23.340Z,18.13
2018-12-17T14:32:03.365Z,17.97
2018-12-17T14:34:41.608Z,17.83
2018-12-17T14:37:20.794Z,17.97
2018-12-17T14:39:58.604Z,16.97
2018-12-17T14:42:43.917Z,17.93
2018-12-17T14:45:26.333Z,16.83
2018-12-17T14:48:08.049Z,17.00
2018-12-17T14:50:46.408Z,18.10
2018-12-17T14:53:27.118Z,17.53
2018-12-17T14:56:07.988Z,17.63
2018-12-17T14:58:48.832Z,16.63
2018-12-17T15:01:36.016Z,18.17
2018-12-17T15:04:12.214Z,17.07
2018-12-17T15:06:55.280Z,16.67
2018-12-17T15:09:32.536Z,18.57
2018-12-17T15:12:07.597Z,19.27
2018-12-17T15:14:42.313Z,21.27
2018-12-17T15:17:20.919Z,17.20
2018-12-17T15:19:59.770Z,17.77
2018-12-17T15:22:34.234Z,18.83
2018-12-17T15:25:11.982Z,18.07
2018-12-17T15:27:50.946Z,17.73
2018-12-17T15:30:32.112Z,17.63
2018-12-17T15:33:10.407Z,17.37
2018-12-17T15:35:51.617Z,16.67
2018-12-17T15:38:30.235Z,17.37
2018-12-17T15:41:04.826Z,17.03
2018-12-17T15:43:51.870Z,17.03
2018-12-17T15:46:29.988Z,16.90
2018-12-17T15:49:05.170Z,18.37
2018-12-17T15:51:44.432Z,17.50
2018-12-17T15:54:19.211Z,17.53
2018-12-17T15:57:01.764Z,18.73
2018-12-17T15:59:41.727Z,18.73
2018-12-17T16:02:14.162Z,19.57
2018-12-17T16:04:55.511Z,18.27
2018-12-17T16:07:33.907Z,18.40
2018-12-17T16:10:11.638Z,18.73
2018-12-17T16:12:52.794Z,19.80
2018-12-17T16:15:36.667Z,19.60
2018-12-17T16:18:17.938Z,18.67
2018-12-17T16:20:57.269Z,19.23
2018-12-17T16:23:37.878Z,20.53
2018-12-17T16:26:17.794Z,19.57
2018-12-17T16:28:56.035Z,18.77
2018-12-17T16:31:34.623Z,18.63
2018-12-17T16:34:13.611Z,17.80
2018-12-17T16:36:51.650Z,18.40
2018-12-17T16:39:31.195Z,17.03
2018-12-17T16:42:08.310Z,17.43
2018-12-17T16:44:37.554Z,19.40
2018-12-17T16:47:16.649Z,19.13
2018-12-17T16:49:56.169Z,18.47
2018-12-17T16:52:32.275Z,19.23
2018-12-17T16:55:12.774Z,18.80
2018-12-17T16:57:51.381Z,18.47
2018-12-17T17:00:29.206Z,20.70
2018-12-17T17:03:10.324Z,27.27
2018-12-17T17:08:39.048Z,26.60
2018-12-17T17:11:22.011Z,23.60
2018-12-17T17:14:02.357Z,21.43
2018-12-17T17:16:40.560Z,25.53
2018-12-17T17:22:26.896Z,21.83
2018-12-17T17:25:09.799Z,21.20
2018-12-17T17:27:44.484Z,20.23
2018-12-17T17:30:24.484Z,18.03
2018-12-17T17:33:04.713Z,19.33
2018-12-17T17:35:41.457Z,20.03
2018-12-17T17:38:18.163Z,18.97
2018-12-17T17:40:58.558Z,19.90
2018-12-17T17:43:38.210Z,19.60
2018-12-17T17:46:13.890Z,21.07
2018-12-17T17:48:49.972Z,19.47
2018-12-17T17:51:29.757Z,19.43
2018-12-17T17:54:11.298Z,20.80
2018-12-17T17:56:42.465Z,19.60
2018-12-17T17:59:30.672Z,20.70
2018-12-17T18:02:07.366Z,20.53
2018-12-17T18:04:48.927Z,20.20
2018-12-17T18:07:25.933Z,21.77
2018-12-17T18:10:01.884Z,20.70
2018-12-17T18:12:41.379Z,21.83
2018-12-17T18:15:21.124Z,22.03
2018-12-17T18:17:55.830Z,21.03
2018-12-17T18:20:31.036Z,22.27
2018-12-17T18:23:07.919Z,21.73
2018-12-17T18:25:47.175Z,22.07
2018-12-17T18:28:25.618Z,21.40
2018-12-17T18:31:04.328Z,22.10
2018-12-17T18:33:43.500Z,21.43
2018-12-17T18:36:18.318Z,22.00
2018-12-17T18:38:54.760Z,21.87
2018-12-17T18:41:33.092Z,23.07
2018-12-17T18:44:05.494Z,22.40
2018-12-17T18:46:42.005Z,22.53
2018-12-17T18:49:20.101Z,25.47
2018-12-17T18:51:56.694Z,22.07
2018-12-17T18:54:35.266Z,21.60
2018-12-17T18:57:18.488Z,23.40
2018-12-17T18:59:53.619Z,23.60
2018-12-17T19:02:33.195Z,22.10
2018-12-17T19:05:07.664Z,22.70
2018-12-17T19:07:42.217Z,23.07
2018-12-17T19:10:29.523Z,23.33
2018-12-17T19:13:09.370Z,21.23
2018-12-17T19:15:44.201Z,22.87
2018-12-17T19:18:23.082Z,22.57
2018-12-17T19:20:57.946Z,23.33
2018-12-17T19:23:35.134Z,21.77
2018-12-17T19:26:11.562Z,21.97
2018-12-17T19:28:50.094Z,23.87
2018-12-17T19:31:34.367Z,22.37
2018-12-17T19:34:08.714Z,20.53
2018-12-17T19:36:45.831Z,20.10
2018-12-17T19:39:22.337Z,20.83
2018-12-17T19:42:00.572Z,20.70
2018-12-17T19:44:39.145Z,20.63
2018-12-17T19:47:16.940Z,19.83
2018-12-17T19:49:48.669Z,20.83
2018-12-17T19:52:27.610Z,22.13
2018-12-17T19:55:06.062Z,21.50
2018-12-17T19:57:44.092Z,20.40
2018-12-17T20:00:22.479Z,20.13
2018-12-17T20:03:01.241Z,19.10
2018-12-17T20:05:40.842Z,19.53
2018-12-17T20:08:19.462Z,19.80
2018-12-17T20:10:59.415Z,19.63
2018-12-17T20:13:37.887Z,18.73
2018-12-17T20:16:14.950Z,20.93
2018-12-17T20:18:54.183Z,19.63
2018-12-17T20:21:33.093Z,20.37
2018-12-17T20:24:12.806Z,19.90
2018-12-17T20:26:44.370Z,19.87
2018-12-17T20:29:18.813Z,18.83
2018-12-17T20:31:50.653Z,18.67
2018-12-17T20:34:29.461Z,19.10
2018-12-17T20:37:10.775Z,19.27
2018-12-17T20:39:46.346Z,18.60
2018-12-17T20:42:22.862Z,18.97
2018-12-17T20:44:57.925Z,18.80
2018-12-17T20:47:28.341Z,20.13
2018-12-17T20:50:04.670Z,18.70
2018-12-17T20:52:41.012Z,19.00
2018-12-17T20:55:09.905Z,18.83
2018-12-17T20:57:50.461Z,19.77
2018-12-17T21:00:26.908Z,22.27
2018-12-17T21:03:11.542Z,22.00
2018-12-17T21:05:45.928Z,23.87
2018-12-17T21:08:24.863Z,20.57
2018-12-17T21:11:04.671Z,22.13
2018-12-17T21:13:41.287Z,20.77
2018-12-17T21:16:19.472Z,19.60
2018-12-17T21:18:58.086Z,18.93
2018-12-17T21:21:32.029Z,18.47
2018-12-17T21:24:14.308Z,25.53
2018-12-17T21:26:52.385Z,25.77
2018-12-17T21:29:30.390Z,19.67
2018-12-17T21:32:13.260Z,20.47
2018-12-17T21:34:53.539Z,21.60
2018-12-17T21:37:31.827Z,21.50
2018-12-17T21:40:10.082Z,23.57
2018-12-17T21:42:48.281Z,23.57
2018-12-17T21:45:29.460Z,23.80
2018-12-17T21:48:04.966Z,26.37
2018-12-17T21:50:46.454Z,20.67
2018-12-17T21:53:25.986Z,21.17
2018-12-17T21:56:05.265Z,21.23
2018-12-17T21:58:45.395Z,19.97
2018-12-17T22:01:21.391Z,20.97
2018-12-17T22:04:00.041Z,18.57
2018-12-17T22:06:43.302Z,21.00
2018-12-17T22:09:17.461Z,22.10
2018-12-17T22:11:55.820Z,31.73
2018-12-17T22:14:34.610Z,23.13
2018-12-17T22:17:12.165Z,24.73
2018-12-17T22:19:41.137Z,24.27
2018-12-17T22:22:20.607Z,22.37
2018-12-17T22:24:57.712Z,21.10
2018-12-17T22:27:35.125Z,20.33
2018-12-17T22:30:11.959Z,21.07
2018-12-17T22:32:50.010Z,21.97
2018-12-17T22:35:28.390Z,20.20
2018-12-17T22:37:58.389Z,20.50
2018-12-17T22:40:35.998Z,20.23
2018-12-17T22:43:22.749Z,18.77
2018-12-17T22:45:59.719Z,20.10
2018-12-17T22:48:38.864Z,19.47
2018-12-17T22:51:07.657Z,17.57
2018-12-17T22:53:47.100Z,19.00
2018-12-17T22:56:24.240Z,18.00
2018-12-17T22:59:02.958Z,18.37
2018-12-17T23:01:41.441Z,18.73
2018-12-17T23:04:20.306Z,18.80
2018-12-17T23:07:00.416Z,18.80
2018-12-17T23:09:43.991Z,19.47
2018-12-17T23:12:28.916Z,20.27
2018-12-17T23:15:13.629Z,19.33
2018-12-17T23:17:51.988Z,19.83
2018-12-17T23:20:31.025Z,20.80
2018-12-17T23:23:09.817Z,20.37
2018-12-17T23:25:47.814Z,20.77
2018-12-17T23:28:25.788Z,21.10
2018-12-17T23:31:00.575Z,21.93
2018-12-17T23:33:35.431Z,21.57
2018-12-17T23:36:14.362Z,21.83
2018-12-17T23:38:52.876Z,22.03
2018-12-17T23:41:22.220Z,20.30
2018-12-17T23:44:04.656Z,19.50
2018-12-17T23:46:43.579Z,20.03
2018-12-17T23:49:12.078Z,20.37
2018-12-17T23:51:54.472Z,19.83
2018-12-17T23:54:32.798Z,19.77
2018-12-17T23:57:09.427Z,19.37
2018-12-17T23:59:43.590Z,19.70
